Welkom op de weersite van Veghel e.o.

Het einde van de zomer naderd.

Echter op 26 augustus 2e hittegolf genoteerd.

Maar wat zegd dat? In 2018 noteerde we er 1 en die was 18 dagen.


Webcam Veghel  Webcam Veghel


Onweer radar Meer informatie blitzortung!


Regen radar Meer informatie rain snow radar


U vindt ons ook hier:

Het Weer Aktueel

European Weather Network

Weather Underground

Benelux Weer Netwerk

AWEKAS


Het weer levert geen direct gevaar op.    Er zijn geen waarschuwingen afgegeven.

METAR rapporten vliegvelden

   
EHAM - Amsterdam
Gewijzigd: 19-11-2019 14:25
Light Showers, Regen, Grotendeels bewolkt  
Light Showers, Regen, Grotendeels bewolkt  
   Wind: Zuiden 7.4 km/h
Wind: Zuiden 7.4 km/h
Temperatuur: 6°C
Voelt als: 4°C
Dauwpunt: 4°C
Vochtigheid: 87%
Barometer: 1016 hPa
Bewolking: Mostly Cloudy
Zicht: meer dan 10 km
Bewolking: Licht bewolkt 2000 ft,
Grotendeels bewolkt 3000 ft
EHAM 191325Z 17004KT 9999 -SHRA FEW020CB BKN030 06/04 Q1016 NOSIG
EHEH - Eindhoven
Gewijzigd: 19-11-2019 14:25
Bewolking  
Bewolking  
   Wind: Westen 13 km/h
Wind: Westen 13 km/h
Temperatuur: 8°C
Voelt als: 6°C
Dauwpunt: 4°C
Vochtigheid: 76%
Barometer: 1017 hPa
Bewolking: Overcast
Zicht: meer dan 10 km
Bewolking: Gedeeltelijk bewolkt 4000 ft,
Grotendeels bewolkt 4600 ft,
Bewolking 8200 ft
EHEH 191325Z AUTO 26007KT 240V320 9999 SCT040 BKN046 OVC082 08/04 Q1017 BLU 24008KT 9999 FEW017 SCT045
EHGR - Gilze/Rijen
Gewijzigd: 19-11-2019 14:29
Bewolking  
Bewolking  
   Wind: Westen 14.8 km/h
Wind: Westen 14.8 km/h
Temperatuur: 8°C
Voelt als: 6°C
Dauwpunt: 3°C
Vochtigheid: 71%
Barometer: 1017 hPa
Bewolking: Overcast
Zicht: meer dan 10 km
Bewolking: Grotendeels bewolkt 2100 ft,
Bewolking 8200 ft
EHGR 191329Z AUTO 28008KT 250V310 9999 BKN021 OVC082 08/03 Q1017 WHT 26005KT 9999 FEW020 SCT030 SCT040
EHBK - Maastricht
Gewijzigd: 19-11-2019 14:25
Licht bewolkt  
Licht bewolkt  
   Wind: Westen 9.3 km/h
Wind: Westen 9.3 km/h
Temperatuur: 8°C
Voelt als: 7°C
Dauwpunt: 3°C
Vochtigheid: 71%
Barometer: 1017 hPa
Bewolking: Few Clouds
Zicht: meer dan 10 km
Bewolking: Licht bewolkt 2100 ft
EHBK 191325Z AUTO 28005KT 230V340 9999 FEW021 08/03 Q1017 NOSIG
EHVK - Volkel
Gewijzigd: 19-11-2019 14:37
Bewolking  
Bewolking  
   Wind: Westen 16.7 km/h
Wind: Westen 16.7 km/h
Temperatuur: 7°C
Voelt als: 4°C
Dauwpunt: 3°C
Vochtigheid: 76%
Barometer: 1016 hPa
Bewolking: Overcast
Bewolking: Bewolking 3200 ft
EHVK 191337Z AUTO 27009KT 240V320 //// // OVC032 07/03 Q1016 23008KT 9999 SCT020 BKN030
EHFS - Vlissingen
Gewijzigd: 19-11-2019 14:25
Helder  
Helder  
   Wind: Westen 20.4 km/h
Wind: Westen 20.4 km/h
Temperatuur: 8°C
Voelt als: 5°C
Dauwpunt: 1°C
Vochtigheid: 62%
Barometer: 1017 hPa
Bewolking: Clear
Zicht: meer dan 10 km
Bewolking: Helder ft
EHFS 191325Z AUTO 28011KT 250V310 9999 NCD 08/01 Q1017 W///H///

Script ontwikkeld door  Saratoga-weather.org Aangepast voor de template door  Weerstation Leuven

Apparatuur in gebruik:

Weerstation
Davis VP2

Weerprogramma
WeatherLink

Weercomputer
Sponsor

Webleverancier
My provider

Davis VP2

WeatherLink

Sponsor

My provider